sensor_id;sensor_type;location;lat;lon;timestamp;P1;durP1;ratioP1;P2;durP2;ratioP2
10985;SDS011;5546;48.714;8.738;2023-08-20T00:00:06;14.55;;;9.85;;
10985;SDS011;5546;48.714;8.738;2023-08-20T00:02:33;13.93;;;10.45;;
10985;SDS011;5546;48.714;8.738;2023-08-20T00:05:00;11.45;;;10.07;;
10985;SDS011;5546;48.714;8.738;2023-08-20T00:07:28;11.63;;;9.85;;
10985;SDS011;5546;48.714;8.738;2023-08-20T00:09:55;11.20;;;10.10;;
10985;SDS011;5546;48.714;8.738;2023-08-20T00:12:21;11.02;;;9.88;;
10985;SDS011;5546;48.714;8.738;2023-08-20T00:14:54;11.52;;;9.45;;
10985;SDS011;5546;48.714;8.738;2023-08-20T00:17:23;10.43;;;9.43;;
10985;SDS011;5546;48.714;8.738;2023-08-20T00:19:52;13.52;;;10.20;;
10985;SDS011;5546;48.714;8.738;2023-08-20T00:22:18;9.82;;;8.65;;
10985;SDS011;5546;48.714;8.738;2023-08-20T00:24:46;9.82;;;8.93;;
10985;SDS011;5546;48.714;8.738;2023-08-20T00:27:11;11.02;;;9.30;;
10985;SDS011;5546;48.714;8.738;2023-08-20T00:29:37;10.07;;;9.07;;
10985;SDS011;5546;48.714;8.738;2023-08-20T00:32:03;12.30;;;9.23;;
10985;SDS011;5546;48.714;8.738;2023-08-20T00:34:29;10.27;;;9.20;;
10985;SDS011;5546;48.714;8.738;2023-08-20T00:36:54;10.10;;;9.10;;
10985;SDS011;5546;48.714;8.738;2023-08-20T00:39:20;11.63;;;9.45;;
10985;SDS011;5546;48.714;8.738;2023-08-20T00:41:45;12.20;;;8.90;;
10985;SDS011;5546;48.714;8.738;2023-08-20T00:44:11;10.05;;;8.88;;
10985;SDS011;5546;48.714;8.738;2023-08-20T00:46:36;9.60;;;8.55;;
10985;SDS011;5546;48.714;8.738;2023-08-20T00:49:02;9.80;;;8.75;;
10985;SDS011;5546;48.714;8.738;2023-08-20T00:51:28;10.27;;;9.32;;
10985;SDS011;5546;48.714;8.738;2023-08-20T00:53:54;9.88;;;8.88;;
10985;SDS011;5546;48.714;8.738;2023-08-20T00:56:19;9.93;;;9.05;;
10985;SDS011;5546;48.714;8.738;2023-08-20T00:58:46;12.45;;;9.73;;
10985;SDS011;5546;48.714;8.738;2023-08-20T01:01:11;11.52;;;10.00;;
10985;SDS011;5546;48.714;8.738;2023-08-20T01:03:37;12.25;;;9.88;;
10985;SDS011;5546;48.714;8.738;2023-08-20T01:06:09;10.50;;;9.25;;
10985;SDS011;5546;48.714;8.738;2023-08-20T01:08:45;13.25;;;9.77;;
10985;SDS011;5546;48.714;8.738;2023-08-20T01:11:12;11.38;;;10.27;;
10985;SDS011;5546;48.714;8.738;2023-08-20T01:13:46;10.50;;;9.13;;
10985;SDS011;5546;48.714;8.738;2023-08-20T01:16:12;12.38;;;9.63;;
10985;SDS011;5546;48.714;8.738;2023-08-20T01:18:37;11.45;;;9.07;;
10985;SDS011;5546;48.714;8.738;2023-08-20T01:21:04;13.18;;;9.65;;
10985;SDS011;5546;48.714;8.738;2023-08-20T01:26:15;9.25;;;8.35;;
10985;SDS011;5546;48.714;8.738;2023-08-20T01:28:55;11.27;;;9.57;;
10985;SDS011;5546;48.714;8.738;2023-08-20T01:31:21;10.10;;;9.05;;
10985;SDS011;5546;48.714;8.738;2023-08-20T01:33:48;14.00;;;9.63;;
10985;SDS011;5546;48.714;8.738;2023-08-20T01:36:14;11.07;;;9.90;;
10985;SDS011;5546;48.714;8.738;2023-08-20T01:38:41;11.13;;;9.90;;
10985;SDS011;5546;48.714;8.738;2023-08-20T01:41:07;13.40;;;9.38;;
10985;SDS011;5546;48.714;8.738;2023-08-20T01:43:32;11.52;;;9.98;;
10985;SDS011;5546;48.714;8.738;2023-08-20T01:45:59;11.55;;;9.75;;
10985;SDS011;5546;48.714;8.738;2023-08-20T01:48:24;11.40;;;9.63;;
10985;SDS011;5546;48.714;8.738;2023-08-20T01:50:50;11.25;;;10.00;;
10985;SDS011;5546;48.714;8.738;2023-08-20T01:53:16;13.43;;;8.98;;
10985;SDS011;5546;48.714;8.738;2023-08-20T01:55:41;11.63;;;9.18;;
10985;SDS011;5546;48.714;8.738;2023-08-20T01:58:07;14.98;;;9.98;;
10985;SDS011;5546;48.714;8.738;2023-08-20T02:00:32;11.88;;;9.50;;
10985;SDS011;5546;48.714;8.738;2023-08-20T02:02:58;13.15;;;9.75;;
10985;SDS011;5546;48.714;8.738;2023-08-20T02:05:24;14.77;;;9.52;;
10985;SDS011;5546;48.714;8.738;2023-08-20T02:07:50;10.02;;;9.07;;
10985;SDS011;5546;48.714;8.738;2023-08-20T02:10:15;11.68;;;9.35;;
10985;SDS011;5546;48.714;8.738;2023-08-20T02:12:41;10.90;;;10.00;;
10985;SDS011;5546;48.714;8.738;2023-08-20T02:15:07;11.48;;;9.65;;
10985;SDS011;5546;48.714;8.738;2023-08-20T02:17:34;12.13;;;10.40;;
10985;SDS011;5546;48.714;8.738;2023-08-20T02:20:00;10.70;;;9.70;;
10985;SDS011;5546;48.714;8.738;2023-08-20T02:22:28;14.32;;;10.15;;
10985;SDS011;5546;48.714;8.738;2023-08-20T02:24:54;13.68;;;10.30;;
10985;SDS011;5546;48.714;8.738;2023-08-20T02:27:20;11.02;;;10.00;;
10985;SDS011;5546;48.714;8.738;2023-08-20T02:29:45;12.30;;;9.40;;
10985;SDS011;5546;48.714;8.738;2023-08-20T02:32:11;11.60;;;9.77;;
10985;SDS011;5546;48.714;8.738;2023-08-20T02:34:37;11.32;;;9.98;;
10985;SDS011;5546;48.714;8.738;2023-08-20T02:37:02;13.43;;;10.27;;
10985;SDS011;5546;48.714;8.738;2023-08-20T02:39:27;10.93;;;9.45;;
10985;SDS011;5546;48.714;8.738;2023-08-20T02:41:53;13.13;;;10.07;;
10985;SDS011;5546;48.714;8.738;2023-08-20T02:44:18;11.65;;;9.80;;
10985;SDS011;5546;48.714;8.738;2023-08-20T02:46:44;10.32;;;9.40;;
10985;SDS011;5546;48.714;8.738;2023-08-20T02:49:10;9.90;;;8.93;;
10985;SDS011;5546;48.714;8.738;2023-08-20T02:51:35;11.75;;;9.07;;
10985;SDS011;5546;48.714;8.738;2023-08-20T02:54:01;11.13;;;9.07;;
10985;SDS011;5546;48.714;8.738;2023-08-20T02:56:27;10.43;;;8.55;;
10985;SDS011;5546;48.714;8.738;2023-08-20T02:58:52;12.13;;;9.10;;
10985;SDS011;5546;48.714;8.738;2023-08-20T03:01:18;11.63;;;9.75;;
10985;SDS011;5546;48.714;8.738;2023-08-20T03:03:48;11.82;;;10.30;;
10985;SDS011;5546;48.714;8.738;2023-08-20T03:06:14;10.38;;;9.43;;
10985;SDS011;5546;48.714;8.738;2023-08-20T03:08:39;11.32;;;9.68;;
10985;SDS011;5546;48.714;8.738;2023-08-20T03:11:05;11.77;;;9.27;;
10985;SDS011;5546;48.714;8.738;2023-08-20T03:13:30;11.95;;;10.32;;
10985;SDS011;5546;48.714;8.738;2023-08-20T03:15:56;12.02;;;10.40;;
10985;SDS011;5546;48.714;8.738;2023-08-20T03:18:22;11.30;;;10.02;;
10985;SDS011;5546;48.714;8.738;2023-08-20T03:20:47;10.27;;;9.23;;
10985;SDS011;5546;48.714;8.738;2023-08-20T03:23:12;10.85;;;9.85;;
10985;SDS011;5546;48.714;8.738;2023-08-20T03:25:38;11.20;;;10.20;;
10985;SDS011;5546;48.714;8.738;2023-08-20T03:28:04;12.77;;;10.63;;
10985;SDS011;5546;48.714;8.738;2023-08-20T03:30:29;12.90;;;9.98;;
10985;SDS011;5546;48.714;8.738;2023-08-20T03:32:56;14.48;;;10.05;;
10985;SDS011;5546;48.714;8.738;2023-08-20T03:35:22;12.02;;;10.30;;
10985;SDS011;5546;48.714;8.738;2023-08-20T03:37:47;13.18;;;10.13;;
10985;SDS011;5546;48.714;8.738;2023-08-20T03:40:13;12.60;;;9.82;;
10985;SDS011;5546;48.714;8.738;2023-08-20T03:42:39;13.85;;;9.75;;
10985;SDS011;5546;48.714;8.738;2023-08-20T03:45:05;10.35;;;9.32;;
10985;SDS011;5546;48.714;8.738;2023-08-20T03:47:31;11.98;;;10.10;;
10985;SDS011;5546;48.714;8.738;2023-08-20T03:49:56;11.30;;;9.68;;
10985;SDS011;5546;48.714;8.738;2023-08-20T03:52:22;11.15;;;9.60;;
10985;SDS011;5546;48.714;8.738;2023-08-20T03:54:47;14.43;;;10.15;;
10985;SDS011;5546;48.714;8.738;2023-08-20T03:57:13;9.68;;;8.77;;
10985;SDS011;5546;48.714;8.738;2023-08-20T03:59:39;11.88;;;10.02;;
10985;SDS011;5546;48.714;8.738;2023-08-20T04:02:04;9.98;;;9.07;;
10985;SDS011;5546;48.714;8.738;2023-08-20T04:04:30;10.50;;;9.50;;
10985;SDS011;5546;48.714;8.738;2023-08-20T04:06:56;10.88;;;9.50;;
10985;SDS011;5546;48.714;8.738;2023-08-20T04:09:22;12.23;;;9.57;;
10985;SDS011;5546;48.714;8.738;2023-08-20T04:11:47;10.77;;;9.68;;
10985;SDS011;5546;48.714;8.738;2023-08-20T04:14:13;10.50;;;9.20;;
10985;SDS011;5546;48.714;8.738;2023-08-20T04:16:39;10.93;;;8.73;;
10985;SDS011;5546;48.714;8.738;2023-08-20T04:19:04;11.25;;;9.48;;
10985;SDS011;5546;48.714;8.738;2023-08-20T04:21:30;10.63;;;9.30;;
10985;SDS011;5546;48.714;8.738;2023-08-20T04:23:55;11.27;;;10.18;;
10985;SDS011;5546;48.714;8.738;2023-08-20T04:26:21;12.38;;;10.07;;
10985;SDS011;5546;48.714;8.738;2023-08-20T04:28:46;11.60;;;9.38;;
10985;SDS011;5546;48.714;8.738;2023-08-20T04:31:12;11.02;;;9.93;;
10985;SDS011;5546;48.714;8.738;2023-08-20T04:33:37;11.48;;;8.88;;
10985;SDS011;5546;48.714;8.738;2023-08-20T04:36:03;10.70;;;9.02;;
10985;SDS011;5546;48.714;8.738;2023-08-20T04:38:28;11.98;;;9.32;;
10985;SDS011;5546;48.714;8.738;2023-08-20T04:40:54;10.02;;;9.13;;
10985;SDS011;5546;48.714;8.738;2023-08-20T04:43:19;10.35;;;9.27;;
10985;SDS011;5546;48.714;8.738;2023-08-20T04:45:45;10.23;;;9.35;;
10985;SDS011;5546;48.714;8.738;2023-08-20T04:48:10;11.13;;;9.75;;
10985;SDS011;5546;48.714;8.738;2023-08-20T04:50:36;11.02;;;9.95;;
10985;SDS011;5546;48.714;8.738;2023-08-20T04:53:01;12.35;;;9.35;;
10985;SDS011;5546;48.714;8.738;2023-08-20T04:55:27;11.52;;;9.10;;
10985;SDS011;5546;48.714;8.738;2023-08-20T04:57:53;9.13;;;8.32;;
10985;SDS011;5546;48.714;8.738;2023-08-20T05:00:19;9.35;;;8.32;;
10985;SDS011;5546;48.714;8.738;2023-08-20T05:02:44;12.23;;;8.35;;
10985;SDS011;5546;48.714;8.738;2023-08-20T05:05:10;11.25;;;8.93;;
10985;SDS011;5546;48.714;8.738;2023-08-20T05:07:36;9.85;;;8.95;;
10985;SDS011;5546;48.714;8.738;2023-08-20T05:10:02;11.85;;;8.82;;
10985;SDS011;5546;48.714;8.738;2023-08-20T05:12:28;8.50;;;7.70;;
10985;SDS011;5546;48.714;8.738;2023-08-20T05:14:53;8.95;;;8.07;;
10985;SDS011;5546;48.714;8.738;2023-08-20T05:17:19;8.45;;;7.30;;
10985;SDS011;5546;48.714;8.738;2023-08-20T05:19:45;12.68;;;7.75;;
10985;SDS011;5546;48.714;8.738;2023-08-20T05:22:10;8.00;;;7.25;;
10985;SDS011;5546;48.714;8.738;2023-08-20T05:24:36;7.13;;;6.53;;
10985;SDS011;5546;48.714;8.738;2023-08-20T05:27:09;7.60;;;6.40;;
10985;SDS011;5546;48.714;8.738;2023-08-20T05:29:45;9.35;;;7.03;;
10985;SDS011;5546;48.714;8.738;2023-08-20T05:32:10;7.72;;;6.93;;
10985;SDS011;5546;48.714;8.738;2023-08-20T05:34:36;8.35;;;7.00;;
10985;SDS011;5546;48.714;8.738;2023-08-20T05:37:02;7.85;;;7.07;;
10985;SDS011;5546;48.714;8.738;2023-08-20T05:39:29;9.77;;;7.18;;
10985;SDS011;5546;48.714;8.738;2023-08-20T05:41:55;11.38;;;6.75;;
10985;SDS011;5546;48.714;8.738;2023-08-20T05:44:21;7.70;;;6.78;;
10985;SDS011;5546;48.714;8.738;2023-08-20T05:46:47;9.25;;;7.00;;
10985;SDS011;5546;48.714;8.738;2023-08-20T05:49:13;9.23;;;6.93;;
10985;SDS011;5546;48.714;8.738;2023-08-20T05:51:40;9.20;;;6.80;;
10985;SDS011;5546;48.714;8.738;2023-08-20T05:54:06;7.47;;;6.78;;
10985;SDS011;5546;48.714;8.738;2023-08-20T05:56:32;7.55;;;6.70;;
10985;SDS011;5546;48.714;8.738;2023-08-20T05:58:57;9.90;;;6.72;;
10985;SDS011;5546;48.714;8.738;2023-08-20T06:01:23;9.15;;;6.55;;
10985;SDS011;5546;48.714;8.738;2023-08-20T06:03:48;10.50;;;7.35;;
10985;SDS011;5546;48.714;8.738;2023-08-20T06:06:14;9.50;;;7.20;;
10985;SDS011;5546;48.714;8.738;2023-08-20T06:08:40;8.55;;;6.25;;
10985;SDS011;5546;48.714;8.738;2023-08-20T06:11:05;8.23;;;6.65;;
10985;SDS011;5546;48.714;8.738;2023-08-20T06:13:31;9.48;;;6.35;;
10985;SDS011;5546;48.714;8.738;2023-08-20T06:15:56;7.13;;;6.47;;
10985;SDS011;5546;48.714;8.738;2023-08-20T06:18:21;7.30;;;6.60;;
10985;SDS011;5546;48.714;8.738;2023-08-20T06:20:47;8.20;;;6.43;;
10985;SDS011;5546;48.714;8.738;2023-08-20T06:23:12;7.55;;;6.28;;
10985;SDS011;5546;48.714;8.738;2023-08-20T06:25:38;9.23;;;6.35;;
10985;SDS011;5546;48.714;8.738;2023-08-20T06:28:04;8.73;;;7.32;;
10985;SDS011;5546;48.714;8.738;2023-08-20T06:30:29;9.48;;;6.78;;
10985;SDS011;5546;48.714;8.738;2023-08-20T06:32:55;9.25;;;7.20;;
10985;SDS011;5546;48.714;8.738;2023-08-20T06:35:20;9.90;;;7.43;;
10985;SDS011;5546;48.714;8.738;2023-08-20T06:37:46;7.55;;;6.80;;
10985;SDS011;5546;48.714;8.738;2023-08-20T06:40:11;8.23;;;6.93;;
10985;SDS011;5546;48.714;8.738;2023-08-20T06:42:38;7.50;;;6.45;;
10985;SDS011;5546;48.714;8.738;2023-08-20T06:45:04;7.43;;;6.63;;
10985;SDS011;5546;48.714;8.738;2023-08-20T06:47:30;8.48;;;6.90;;
10985;SDS011;5546;48.714;8.738;2023-08-20T06:49:56;7.95;;;6.95;;
10985;SDS011;5546;48.714;8.738;2023-08-20T06:52:21;9.00;;;7.20;;
10985;SDS011;5546;48.714;8.738;2023-08-20T06:54:47;8.00;;;7.25;;
10985;SDS011;5546;48.714;8.738;2023-08-20T06:57:12;9.27;;;7.07;;
10985;SDS011;5546;48.714;8.738;2023-08-20T06:59:38;9.45;;;6.80;;
10985;SDS011;5546;48.714;8.738;2023-08-20T07:02:03;7.53;;;6.63;;
10985;SDS011;5546;48.714;8.738;2023-08-20T07:04:29;6.90;;;6.30;;
10985;SDS011;5546;48.714;8.738;2023-08-20T07:06:54;9.02;;;6.72;;
10985;SDS011;5546;48.714;8.738;2023-08-20T07:09:20;11.40;;;6.45;;
10985;SDS011;5546;48.714;8.738;2023-08-20T07:11:46;6.88;;;6.05;;
10985;SDS011;5546;48.714;8.738;2023-08-20T07:14:11;7.75;;;6.18;;
10985;SDS011;5546;48.714;8.738;2023-08-20T07:16:37;8.02;;;6.60;;
10985;SDS011;5546;48.714;8.738;2023-08-20T07:19:02;6.82;;;6.22;;
10985;SDS011;5546;48.714;8.738;2023-08-20T07:21:28;7.90;;;6.43;;
10985;SDS011;5546;48.714;8.738;2023-08-20T07:23:53;6.60;;;6.00;;
10985;SDS011;5546;48.714;8.738;2023-08-20T07:26:19;8.00;;;6.70;;
10985;SDS011;5546;48.714;8.738;2023-08-20T07:28:45;7.25;;;6.50;;
10985;SDS011;5546;48.714;8.738;2023-08-20T07:31:23;8.38;;;6.72;;
10985;SDS011;5546;48.714;8.738;2023-08-20T07:33:49;7.78;;;6.63;;
10985;SDS011;5546;48.714;8.738;2023-08-20T07:36:16;6.97;;;6.35;;
10985;SDS011;5546;48.714;8.738;2023-08-20T07:38:42;7.15;;;6.55;;
10985;SDS011;5546;48.714;8.738;2023-08-20T07:41:09;7.50;;;6.07;;
10985;SDS011;5546;48.714;8.738;2023-08-20T07:43:36;7.15;;;6.13;;
10985;SDS011;5546;48.714;8.738;2023-08-20T07:46:03;8.93;;;6.60;;
10985;SDS011;5546;48.714;8.738;2023-08-20T07:48:29;7.30;;;6.53;;
10985;SDS011;5546;48.714;8.738;2023-08-20T07:50:55;9.30;;;7.10;;
10985;SDS011;5546;48.714;8.738;2023-08-20T07:53:20;8.18;;;6.38;;
10985;SDS011;5546;48.714;8.738;2023-08-20T07:55:46;7.30;;;6.55;;
10985;SDS011;5546;48.714;8.738;2023-08-20T07:58:11;7.38;;;5.70;;
10985;SDS011;5546;48.714;8.738;2023-08-20T08:00:37;7.85;;;7.15;;
10985;SDS011;5546;48.714;8.738;2023-08-20T08:03:02;7.65;;;6.85;;
10985;SDS011;5546;48.714;8.738;2023-08-20T08:05:28;7.75;;;6.97;;
10985;SDS011;5546;48.714;8.738;2023-08-20T08:07:54;8.80;;;7.63;;
10985;SDS011;5546;48.714;8.738;2023-08-20T08:10:19;9.32;;;7.35;;
10985;SDS011;5546;48.714;8.738;2023-08-20T08:12:45;10.45;;;7.55;;
10985;SDS011;5546;48.714;8.738;2023-08-20T08:15:11;10.20;;;7.72;;
10985;SDS011;5546;48.714;8.738;2023-08-20T08:17:37;6.97;;;6.30;;
10985;SDS011;5546;48.714;8.738;2023-08-20T08:20:02;8.82;;;6.57;;
10985;SDS011;5546;48.714;8.738;2023-08-20T08:22:28;7.45;;;6.50;;
10985;SDS011;5546;48.714;8.738;2023-08-20T08:24:53;7.85;;;6.57;;
10985;SDS011;5546;48.714;8.738;2023-08-20T08:27:19;7.55;;;6.85;;
10985;SDS011;5546;48.714;8.738;2023-08-20T08:29:44;9.25;;;6.93;;
10985;SDS011;5546;48.714;8.738;2023-08-20T08:32:10;8.13;;;6.90;;
10985;SDS011;5546;48.714;8.738;2023-08-20T08:34:35;8.93;;;7.05;;
10985;SDS011;5546;48.714;8.738;2023-08-20T08:37:01;8.07;;;6.38;;
10985;SDS011;5546;48.714;8.738;2023-08-20T08:39:27;7.93;;;7.15;;
10985;SDS011;5546;48.714;8.738;2023-08-20T08:41:54;10.40;;;6.78;;
10985;SDS011;5546;48.714;8.738;2023-08-20T08:44:33;9.63;;;6.90;;
10985;SDS011;5546;48.714;8.738;2023-08-20T08:46:59;10.80;;;7.07;;
10985;SDS011;5546;48.714;8.738;2023-08-20T08:49:26;6.75;;;6.20;;
10985;SDS011;5546;48.714;8.738;2023-08-20T08:51:54;7.18;;;6.47;;
10985;SDS011;5546;48.714;8.738;2023-08-20T08:54:22;9.27;;;6.70;;
10985;SDS011;5546;48.714;8.738;2023-08-20T08:56:48;7.57;;;6.90;;
10985;SDS011;5546;48.714;8.738;2023-08-20T08:59:14;9.60;;;6.82;;
10985;SDS011;5546;48.714;8.738;2023-08-20T09:01:39;7.53;;;6.53;;
10985;SDS011;5546;48.714;8.738;2023-08-20T09:04:06;7.78;;;6.93;;
10985;SDS011;5546;48.714;8.738;2023-08-20T09:06:45;7.75;;;7.03;;
10985;SDS011;5546;48.714;8.738;2023-08-20T09:09:15;7.63;;;6.72;;
10985;SDS011;5546;48.714;8.738;2023-08-20T09:11:42;7.05;;;6.32;;
10985;SDS011;5546;48.714;8.738;2023-08-20T09:14:07;8.95;;;6.68;;
10985;SDS011;5546;48.714;8.738;2023-08-20T09:16:33;9.45;;;7.07;;
10985;SDS011;5546;48.714;8.738;2023-08-20T09:18:59;6.47;;;5.90;;
10985;SDS011;5546;48.714;8.738;2023-08-20T09:21:29;8.98;;;6.07;;
10985;SDS011;5546;48.714;8.738;2023-08-20T09:23:55;6.95;;;6.30;;
10985;SDS011;5546;48.714;8.738;2023-08-20T09:26:22;6.97;;;6.15;;
10985;SDS011;5546;48.714;8.738;2023-08-20T09:28:48;8.25;;;5.72;;
10985;SDS011;5546;48.714;8.738;2023-08-20T09:31:14;8.15;;;5.90;;
10985;SDS011;5546;48.714;8.738;2023-08-20T09:33:52;6.10;;;5.50;;
10985;SDS011;5546;48.714;8.738;2023-08-20T09:36:18;8.85;;;5.10;;
10985;SDS011;5546;48.714;8.738;2023-08-20T09:38:54;8.02;;;5.88;;
10985;SDS011;5546;48.714;8.738;2023-08-20T09:41:19;9.80;;;5.50;;
10985;SDS011;5546;48.714;8.738;2023-08-20T09:43:47;6.20;;;5.43;;
10985;SDS011;5546;48.714;8.738;2023-08-20T09:46:18;6.63;;;5.50;;
10985;SDS011;5546;48.714;8.738;2023-08-20T09:48:45;9.68;;;5.65;;
10985;SDS011;5546;48.714;8.738;2023-08-20T09:51:15;5.55;;;5.05;;
10985;SDS011;5546;48.714;8.738;2023-08-20T09:53:48;5.70;;;5.20;;
10985;SDS011;5546;48.714;8.738;2023-08-20T09:56:27;6.70;;;5.68;;
10985;SDS011;5546;48.714;8.738;2023-08-20T09:58:54;5.28;;;4.88;;
10985;SDS011;5546;48.714;8.738;2023-08-20T10:01:22;8.63;;;5.93;;
10985;SDS011;5546;48.714;8.738;2023-08-20T10:03:48;7.50;;;5.45;;
10985;SDS011;5546;48.714;8.738;2023-08-20T10:06:13;5.68;;;5.07;;
10985;SDS011;5546;48.714;8.738;2023-08-20T10:08:39;9.45;;;5.22;;
10985;SDS011;5546;48.714;8.738;2023-08-20T10:11:04;9.63;;;5.65;;
10985;SDS011;5546;48.714;8.738;2023-08-20T10:13:30;6.57;;;5.40;;
10985;SDS011;5546;48.714;8.738;2023-08-20T10:15:56;9.27;;;5.65;;
10985;SDS011;5546;48.714;8.738;2023-08-20T10:18:21;7.38;;;5.00;;
10985;SDS011;5546;48.714;8.738;2023-08-20T10:20:50;8.73;;;5.07;;
10985;SDS011;5546;48.714;8.738;2023-08-20T10:23:19;6.70;;;5.40;;
10985;SDS011;5546;48.714;8.738;2023-08-20T10:25:48;6.03;;;5.43;;
10985;SDS011;5546;48.714;8.738;2023-08-20T10:28:24;6.75;;;5.53;;
10985;SDS011;5546;48.714;8.738;2023-08-20T10:31:07;6.35;;;5.75;;
10985;SDS011;5546;48.714;8.738;2023-08-20T10:33:33;8.45;;;5.93;;
10985;SDS011;5546;48.714;8.738;2023-08-20T10:36:08;9.30;;;6.35;;
10985;SDS011;5546;48.714;8.738;2023-08-20T10:38:46;7.40;;;5.65;;
10985;SDS011;5546;48.714;8.738;2023-08-20T10:41:12;6.95;;;5.95;;
10985;SDS011;5546;48.714;8.738;2023-08-20T10:43:38;5.85;;;5.20;;
10985;SDS011;5546;48.714;8.738;2023-08-20T10:48:32;6.07;;;5.50;;
10985;SDS011;5546;48.714;8.738;2023-08-20T10:53:37;9.32;;;5.45;;
10985;SDS011;5546;48.714;8.738;2023-08-20T10:56:08;6.30;;;5.32;;
10985;SDS011;5546;48.714;8.738;2023-08-20T10:58:41;6.18;;;5.07;;
10985;SDS011;5546;48.714;8.738;2023-08-20T11:01:12;6.43;;;5.57;;
10985;SDS011;5546;48.714;8.738;2023-08-20T11:03:46;6.10;;;5.47;;
10985;SDS011;5546;48.714;8.738;2023-08-20T11:06:13;8.32;;;5.75;;
10985;SDS011;5546;48.714;8.738;2023-08-20T11:08:39;7.32;;;5.70;;
10985;SDS011;5546;48.714;8.738;2023-08-20T11:11:06;8.93;;;5.32;;
10985;SDS011;5546;48.714;8.738;2023-08-20T11:13:33;7.50;;;5.10;;
10985;SDS011;5546;48.714;8.738;2023-08-20T11:16:01;9.27;;;5.25;;
10985;SDS011;5546;48.714;8.738;2023-08-20T11:18:27;7.85;;;5.63;;
10985;SDS011;5546;48.714;8.738;2023-08-20T11:20:53;7.18;;;5.07;;
10985;SDS011;5546;48.714;8.738;2023-08-20T11:23:19;6.20;;;5.45;;
10985;SDS011;5546;48.714;8.738;2023-08-20T11:25:45;8.80;;;5.63;;
10985;SDS011;5546;48.714;8.738;2023-08-20T11:28:11;6.10;;;5.60;;
10985;SDS011;5546;48.714;8.738;2023-08-20T11:30:37;6.05;;;5.43;;
10985;SDS011;5546;48.714;8.738;2023-08-20T11:33:03;6.85;;;5.50;;
10985;SDS011;5546;48.714;8.738;2023-08-20T11:35:30;7.93;;;5.60;;
10985;SDS011;5546;48.714;8.738;2023-08-20T11:37:56;5.80;;;5.25;;
10985;SDS011;5546;48.714;8.738;2023-08-20T11:40:23;6.50;;;5.20;;
10985;SDS011;5546;48.714;8.738;2023-08-20T11:42:48;8.65;;;5.57;;
10985;SDS011;5546;48.714;8.738;2023-08-20T11:45:14;6.22;;;5.63;;
10985;SDS011;5546;48.714;8.738;2023-08-20T11:47:40;5.68;;;5.07;;
10985;SDS011;5546;48.714;8.738;2023-08-20T11:50:07;6.18;;;5.10;;
10985;SDS011;5546;48.714;8.738;2023-08-20T11:52:33;7.07;;;5.43;;
10985;SDS011;5546;48.714;8.738;2023-08-20T11:55:00;5.80;;;5.25;;
10985;SDS011;5546;48.714;8.738;2023-08-20T11:57:28;9.25;;;5.22;;
10985;SDS011;5546;48.714;8.738;2023-08-20T11:59:54;8.80;;;5.60;;
10985;SDS011;5546;48.714;8.738;2023-08-20T12:02:26;6.28;;;5.10;;
10985;SDS011;5546;48.714;8.738;2023-08-20T12:04:57;9.80;;;5.38;;
10985;SDS011;5546;48.714;8.738;2023-08-20T12:07:27;7.60;;;5.40;;
10985;SDS011;5546;48.714;8.738;2023-08-20T12:09:53;6.07;;;4.80;;
10985;SDS011;5546;48.714;8.738;2023-08-20T12:12:19;8.32;;;5.07;;
10985;SDS011;5546;48.714;8.738;2023-08-20T12:14:46;7.75;;;5.25;;
10985;SDS011;5546;48.714;8.738;2023-08-20T12:17:11;8.90;;;5.55;;
10985;SDS011;5546;48.714;8.738;2023-08-20T12:19:37;8.77;;;5.53;;
10985;SDS011;5546;48.714;8.738;2023-08-20T12:22:02;6.13;;;5.60;;
10985;SDS011;5546;48.714;8.738;2023-08-20T12:24:28;6.07;;;5.50;;
10985;SDS011;5546;48.714;8.738;2023-08-20T12:26:54;7.28;;;5.47;;
10985;SDS011;5546;48.714;8.738;2023-08-20T12:29:20;12.48;;;11.25;;
10985;SDS011;5546;48.714;8.738;2023-08-20T12:31:45;11.65;;;6.75;;
10985;SDS011;5546;48.714;8.738;2023-08-20T12:34:11;18.33;;;16.25;;
10985;SDS011;5546;48.714;8.738;2023-08-20T12:36:36;6.82;;;5.32;;
10985;SDS011;5546;48.714;8.738;2023-08-20T12:39:03;9.30;;;6.32;;
10985;SDS011;5546;48.714;8.738;2023-08-20T12:41:29;10.70;;;5.22;;
10985;SDS011;5546;48.714;8.738;2023-08-20T12:43:55;7.97;;;6.45;;
10985;SDS011;5546;48.714;8.738;2023-08-20T12:46:21;6.85;;;5.97;;
10985;SDS011;5546;48.714;8.738;2023-08-20T12:48:47;8.50;;;6.60;;
10985;SDS011;5546;48.714;8.738;2023-08-20T12:51:12;6.05;;;5.45;;
10985;SDS011;5546;48.714;8.738;2023-08-20T12:53:38;9.07;;;6.45;;
10985;SDS011;5546;48.714;8.738;2023-08-20T12:56:04;7.05;;;5.45;;
10985;SDS011;5546;48.714;8.738;2023-08-20T12:58:30;9.25;;;5.60;;
10985;SDS011;5546;48.714;8.738;2023-08-20T13:00:55;8.90;;;5.60;;
10985;SDS011;5546;48.714;8.738;2023-08-20T13:03:21;6.90;;;6.25;;
10985;SDS011;5546;48.714;8.738;2023-08-20T13:05:47;5.80;;;5.22;;
10985;SDS011;5546;48.714;8.738;2023-08-20T13:08:12;8.48;;;7.60;;
10985;SDS011;5546;48.714;8.738;2023-08-20T13:10:41;10.00;;;8.95;;
10985;SDS011;5546;48.714;8.738;2023-08-20T13:13:14;8.32;;;5.35;;
10985;SDS011;5546;48.714;8.738;2023-08-20T13:15:41;6.90;;;5.80;;
10985;SDS011;5546;48.714;8.738;2023-08-20T13:18:07;6.85;;;5.20;;
10985;SDS011;5546;48.714;8.738;2023-08-20T13:20:33;8.45;;;5.07;;
10985;SDS011;5546;48.714;8.738;2023-08-20T13:22:59;5.75;;;4.93;;
10985;SDS011;5546;48.714;8.738;2023-08-20T13:25:24;9.85;;;5.45;;
10985;SDS011;5546;48.714;8.738;2023-08-20T13:27:50;8.25;;;5.18;;
10985;SDS011;5546;48.714;8.738;2023-08-20T13:30:15;7.32;;;5.00;;
10985;SDS011;5546;48.714;8.738;2023-08-20T13:32:41;10.82;;;5.15;;
10985;SDS011;5546;48.714;8.738;2023-08-20T13:35:06;8.75;;;5.90;;
10985;SDS011;5546;48.714;8.738;2023-08-20T13:37:33;5.97;;;5.38;;
10985;SDS011;5546;48.714;8.738;2023-08-20T13:40:00;5.75;;;5.10;;
10985;SDS011;5546;48.714;8.738;2023-08-20T13:42:25;5.53;;;5.03;;
10985;SDS011;5546;48.714;8.738;2023-08-20T13:44:51;9.65;;;5.00;;
10985;SDS011;5546;48.714;8.738;2023-08-20T13:47:17;8.35;;;5.35;;
10985;SDS011;5546;48.714;8.738;2023-08-20T13:49:43;9.18;;;5.47;;
10985;SDS011;5546;48.714;8.738;2023-08-20T13:52:11;7.13;;;5.60;;
10985;SDS011;5546;48.714;8.738;2023-08-20T13:54:37;9.52;;;6.18;;
10985;SDS011;5546;48.714;8.738;2023-08-20T13:57:02;8.85;;;6.00;;
10985;SDS011;5546;48.714;8.738;2023-08-20T13:59:29;6.60;;;5.40;;
10985;SDS011;5546;48.714;8.738;2023-08-20T14:01:54;8.45;;;5.32;;
10985;SDS011;5546;48.714;8.738;2023-08-20T14:04:20;5.65;;;5.15;;
10985;SDS011;5546;48.714;8.738;2023-08-20T14:06:45;7.82;;;5.70;;
10985;SDS011;5546;48.714;8.738;2023-08-20T14:09:11;8.30;;;5.30;;
10985;SDS011;5546;48.714;8.738;2023-08-20T14:11:36;8.43;;;5.40;;
10985;SDS011;5546;48.714;8.738;2023-08-20T14:14:02;10.05;;;5.22;;
10985;SDS011;5546;48.714;8.738;2023-08-20T14:16:28;5.95;;;5.35;;
10985;SDS011;5546;48.714;8.738;2023-08-20T14:18:53;9.10;;;5.70;;
10985;SDS011;5546;48.714;8.738;2023-08-20T14:21:19;7.30;;;5.13;;
10985;SDS011;5546;48.714;8.738;2023-08-20T14:23:44;8.55;;;5.88;;
10985;SDS011;5546;48.714;8.738;2023-08-20T14:26:10;7.68;;;5.78;;
10985;SDS011;5546;48.714;8.738;2023-08-20T14:28:35;12.55;;;5.97;;
10985;SDS011;5546;48.714;8.738;2023-08-20T14:31:04;10.40;;;6.28;;
10985;SDS011;5546;48.714;8.738;2023-08-20T14:33:32;8.30;;;5.60;;
10985;SDS011;5546;48.714;8.738;2023-08-20T14:35:58;6.28;;;5.60;;
10985;SDS011;5546;48.714;8.738;2023-08-20T14:38:23;9.55;;;5.78;;
10985;SDS011;5546;48.714;8.738;2023-08-20T14:40:49;7.10;;;5.60;;
10985;SDS011;5546;48.714;8.738;2023-08-20T14:43:14;7.20;;;5.85;;
10985;SDS011;5546;48.714;8.738;2023-08-20T14:45:40;8.40;;;5.45;;
10985;SDS011;5546;48.714;8.738;2023-08-20T14:48:06;30.27;;;27.23;;
10985;SDS011;5546;48.714;8.738;2023-08-20T14:50:31;8.98;;;5.72;;
10985;SDS011;5546;48.714;8.738;2023-08-20T14:52:58;9.30;;;6.18;;
10985;SDS011;5546;48.714;8.738;2023-08-20T14:55:24;7.65;;;6.13;;
10985;SDS011;5546;48.714;8.738;2023-08-20T14:57:49;8.05;;;5.35;;